createdAt,value
2018-12-30T00:04:58.496Z,90.70
2018-12-30T00:07:30.835Z,90.70
2018-12-30T00:10:03.663Z,90.70
2018-12-30T00:12:34.936Z,90.60
2018-12-30T00:15:06.526Z,90.70
2018-12-30T00:17:38.076Z,90.70
2018-12-30T00:20:09.541Z,90.70
2018-12-30T00:22:40.789Z,90.70
2018-12-30T00:25:12.169Z,90.70
2018-12-30T00:27:43.498Z,90.70
2018-12-30T00:30:14.789Z,90.70
2018-12-30T00:32:46.121Z,90.70
2018-12-30T00:47:17.581Z,90.70
2018-12-30T01:05:08.409Z,90.70
2018-12-30T01:07:39.682Z,90.60
2018-12-30T01:10:11.037Z,90.60
2018-12-30T01:12:42.389Z,90.60
2018-12-30T01:15:13.869Z,90.60
2018-12-30T01:17:45.220Z,90.60
2018-12-30T02:06:27.831Z,90.60
2018-12-30T02:08:59.464Z,90.60
2018-12-30T02:11:30.931Z,90.60
2018-12-30T02:14:02.189Z,90.60
2018-12-30T02:16:33.591Z,90.60
2018-12-30T02:19:05.021Z,90.60
2018-12-30T02:21:41.042Z,90.60
2018-12-30T02:24:09.463Z,90.60
2018-12-30T02:26:40.866Z,90.60
2018-12-30T02:29:12.115Z,90.60
2018-12-30T02:31:43.398Z,90.60
2018-12-30T02:34:14.662Z,90.60
2018-12-30T02:36:46.001Z,90.60
2018-12-30T02:39:17.368Z,90.60
2018-12-30T02:41:48.604Z,90.60
2018-12-30T02:44:20.073Z,90.60
2018-12-30T02:46:51.313Z,90.60
2018-12-30T02:49:22.680Z,90.60
2018-12-30T02:51:54.194Z,90.50
2018-12-30T02:54:25.461Z,90.60
2018-12-30T02:56:56.881Z,90.50
2018-12-30T02:59:28.275Z,90.60
2018-12-30T03:13:57.680Z,90.50
2018-12-30T03:16:29.006Z,90.50
2018-12-30T03:19:00.462Z,90.50
2018-12-30T03:21:31.827Z,90.50
2018-12-30T03:24:03.127Z,90.50
2018-12-30T03:26:34.609Z,90.50
2018-12-30T03:29:05.999Z,90.50
2018-12-30T03:31:37.241Z,90.50
2018-12-30T03:34:08.640Z,90.60
2018-12-30T03:36:40.204Z,90.60
2018-12-30T03:39:11.470Z,90.60
2018-12-30T03:41:42.848Z,90.70
2018-12-30T03:44:14.134Z,90.70
2018-12-30T03:46:45.469Z,90.70
2018-12-30T03:49:16.664Z,90.70
2018-12-30T03:51:47.854Z,90.70
2018-12-30T03:54:19.226Z,90.60
2018-12-30T03:56:50.431Z,90.60
2018-12-30T03:59:21.658Z,90.60
2018-12-30T04:01:53.937Z,90.60
2018-12-30T04:04:25.190Z,90.70
2018-12-30T04:06:56.881Z,90.70
2018-12-30T04:09:28.126Z,90.70
2018-12-30T04:11:59.474Z,90.70
2018-12-30T04:14:31.001Z,90.80
2018-12-30T04:17:02.197Z,90.80
2018-12-30T04:19:37.125Z,90.80
2018-12-30T04:22:16.633Z,90.80
2018-12-30T04:24:41.510Z,90.80
2018-12-30T04:27:12.709Z,90.80
2018-12-30T04:29:44.117Z,90.80
2018-12-30T04:32:15.407Z,90.80
2018-12-30T04:34:46.609Z,90.80
2018-12-30T04:37:18.210Z,90.80
2018-12-30T04:39:49.502Z,90.80
2018-12-30T04:42:20.702Z,90.80
2018-12-30T04:44:53.617Z,90.80
2018-12-30T04:47:25.665Z,90.80
2018-12-30T04:49:56.998Z,90.80
2018-12-30T04:52:28.267Z,90.80
2018-12-30T04:54:59.683Z,90.80
2018-12-30T04:57:31.055Z,90.80
2018-12-30T05:00:02.324Z,90.80
2018-12-30T05:02:33.688Z,90.80
2018-12-30T05:05:05.001Z,90.80
2018-12-30T05:07:37.885Z,90.80
2018-12-30T05:16:12.904Z,90.70
2018-12-30T05:18:44.977Z,90.70
2018-12-30T05:21:16.311Z,90.70
2018-12-30T05:23:47.549Z,90.70
2018-12-30T05:26:18.874Z,90.80
2018-12-30T05:28:51.898Z,90.80
2018-12-30T05:31:23.285Z,90.80
2018-12-30T05:33:54.581Z,90.80
2018-12-30T05:48:31.670Z,90.70
2018-12-30T05:51:03.021Z,90.70
2018-12-30T05:53:34.301Z,90.80
2018-12-30T05:56:05.576Z,90.70
2018-12-30T05:58:36.896Z,90.80
2018-12-30T06:01:08.245Z,90.80
2018-12-30T06:03:39.605Z,90.80
2018-12-30T06:24:12.262Z,90.80
2018-12-30T06:26:43.430Z,90.80
2018-12-30T06:29:14.756Z,90.80
2018-12-30T06:31:46.501Z,90.80
2018-12-30T06:34:17.720Z,90.80
2018-12-30T06:36:49.073Z,90.90
2018-12-30T06:39:20.375Z,91.20
2018-12-30T06:41:51.605Z,90.90
2018-12-30T06:44:22.875Z,90.80
2018-12-30T06:46:54.107Z,90.80
2018-12-30T06:49:25.318Z,90.80
2018-12-30T06:51:56.599Z,90.80
2018-12-30T06:54:27.818Z,90.80
2018-12-30T06:57:00.029Z,90.80
2018-12-30T06:59:31.374Z,90.80
2018-12-30T07:02:02.741Z,90.80
2018-12-30T07:04:34.009Z,90.80
2018-12-30T07:07:05.383Z,90.90
2018-12-30T07:09:36.700Z,90.90
2018-12-30T07:12:07.914Z,91.00
2018-12-30T07:14:39.137Z,91.00
2018-12-30T07:17:10.442Z,91.20
2018-12-30T07:19:41.694Z,91.40
2018-12-30T07:22:12.892Z,91.60
2018-12-30T07:24:44.349Z,91.70
2018-12-30T07:27:18.413Z,91.80
2018-12-30T07:29:49.784Z,92.00
2018-12-30T07:32:21.093Z,92.10
2018-12-30T07:34:52.419Z,92.10
2018-12-30T07:37:23.686Z,92.20
2018-12-30T07:39:54.925Z,92.20
2018-12-30T07:42:26.183Z,92.30
2018-12-30T07:44:57.370Z,92.30
2018-12-30T07:47:28.577Z,92.40
2018-12-30T07:49:59.798Z,92.30
2018-12-30T07:52:31.209Z,92.50
2018-12-30T07:55:02.440Z,92.50
2018-12-30T07:57:33.940Z,92.50
2018-12-30T08:00:05.256Z,92.50
2018-12-30T08:11:51.730Z,92.40
2018-12-30T08:14:23.159Z,92.30
2018-12-30T08:16:54.469Z,92.20
2018-12-30T08:19:25.717Z,92.00
2018-12-30T08:21:57.221Z,91.90
2018-12-30T08:27:31.958Z,91.80
2018-12-30T08:30:03.396Z,91.70
2018-12-30T08:32:34.613Z,91.70
2018-12-30T08:35:05.785Z,91.60
2018-12-30T08:37:37.114Z,91.60
2018-12-30T08:40:08.515Z,91.60
2018-12-30T08:42:40.006Z,91.70
2018-12-30T08:45:11.542Z,91.60
2018-12-30T08:47:43.537Z,91.70
2018-12-30T08:50:14.886Z,91.70
2018-12-30T08:52:46.179Z,91.70
2018-12-30T08:55:20.201Z,91.70
2018-12-30T08:57:51.586Z,91.70
2018-12-30T09:06:27.449Z,91.70
2018-12-30T09:09:02.824Z,91.70
2018-12-30T09:11:34.152Z,91.70
2018-12-30T09:14:05.418Z,91.80
2018-12-30T09:16:40.019Z,91.70
2018-12-30T09:19:11.410Z,91.80
2018-12-30T09:21:42.857Z,91.80
2018-12-30T09:24:17.530Z,91.80
2018-12-30T09:26:48.906Z,91.80
2018-12-30T09:29:20.150Z,91.90
2018-12-30T09:31:53.132Z,91.80
2018-12-30T09:34:24.386Z,91.80
2018-12-30T09:36:57.098Z,91.80
2018-12-30T09:39:28.393Z,91.70
2018-12-30T09:42:01.058Z,91.70
2018-12-30T09:44:32.379Z,91.70
2018-12-30T09:47:03.628Z,91.70
2018-12-30T09:49:34.902Z,91.70
2018-12-30T09:52:06.289Z,91.80
2018-12-30T09:54:37.536Z,91.80
2018-12-30T09:57:08.861Z,91.80
2018-12-30T09:59:41.054Z,91.70
2018-12-30T10:02:12.430Z,92.20
2018-12-30T10:04:43.745Z,91.80
2018-12-30T10:07:15.017Z,91.80
2018-12-30T10:09:46.177Z,91.80
2018-12-30T10:12:17.561Z,91.80
2018-12-30T10:14:49.034Z,91.80
2018-12-30T10:17:21.935Z,91.70
2018-12-30T10:19:53.479Z,91.70
2018-12-30T10:22:24.761Z,91.70
2018-12-30T10:24:56.408Z,91.70
2018-12-30T10:27:27.733Z,91.70
2018-12-30T10:29:59.037Z,91.70
2018-12-30T10:32:30.774Z,91.60
2018-12-30T10:35:02.365Z,91.60
2018-12-30T10:37:33.731Z,91.60
2018-12-30T10:40:06.049Z,91.60
2018-12-30T10:42:37.533Z,91.60
2018-12-30T10:45:08.934Z,91.60
2018-12-30T10:47:40.577Z,91.60
2018-12-30T10:50:11.781Z,91.60
2018-12-30T10:52:43.086Z,91.60
2018-12-30T10:55:14.344Z,91.50
2018-12-30T10:57:45.862Z,91.40
2018-12-30T11:00:19.787Z,91.40
2018-12-30T11:02:54.160Z,91.30
2018-12-30T11:05:25.566Z,91.30
2018-12-30T11:07:56.846Z,91.30
2018-12-30T11:10:28.174Z,91.30
2018-12-30T11:12:59.733Z,91.30
2018-12-30T11:15:30.942Z,91.20
2018-12-30T11:18:02.164Z,91.20
2018-12-30T11:20:35.125Z,91.10
2018-12-30T11:23:06.789Z,91.10
2018-12-30T11:25:38.247Z,91.10
2018-12-30T11:28:10.808Z,91.10
2018-12-30T11:30:42.145Z,91.00
2018-12-30T11:33:13.877Z,91.10
2018-12-30T11:35:45.195Z,91.10
2018-12-30T11:38:16.654Z,91.10
2018-12-30T11:40:47.917Z,91.00
2018-12-30T11:43:19.274Z,91.10
2018-12-30T11:45:53.747Z,91.10
2018-12-30T11:48:25.230Z,91.10
2018-12-30T11:50:56.571Z,91.10
2018-12-30T11:53:27.840Z,91.10
2018-12-30T11:55:59.034Z,91.10
2018-12-30T11:58:30.647Z,91.20
2018-12-30T12:01:01.886Z,91.20
2018-12-30T12:03:33.129Z,91.20
2018-12-30T12:06:04.357Z,91.20
2018-12-30T12:08:35.717Z,91.20
2018-12-30T12:11:06.882Z,91.30
2018-12-30T12:13:38.153Z,91.30
2018-12-30T12:16:09.494Z,91.30
2018-12-30T12:18:40.879Z,91.30
2018-12-30T12:21:12.198Z,91.30
2018-12-30T12:23:43.406Z,91.30
2018-12-30T12:26:14.675Z,91.30
2018-12-30T12:28:46.227Z,91.20
2018-12-30T12:31:17.662Z,91.40
2018-12-30T12:33:48.943Z,91.50
2018-12-30T12:36:20.170Z,91.70
2018-12-30T12:38:51.476Z,91.90
2018-12-30T12:41:22.779Z,92.00
2018-12-30T12:43:54.099Z,92.10
2018-12-30T12:46:25.454Z,92.10
2018-12-30T12:48:56.725Z,92.20
2018-12-30T12:51:27.905Z,92.20
2018-12-30T12:53:59.130Z,92.30
2018-12-30T12:56:30.708Z,92.30
2018-12-30T12:59:01.992Z,92.20
2018-12-30T13:01:33.245Z,92.30
2018-12-30T13:04:04.619Z,92.20
2018-12-30T13:06:35.900Z,92.10
2018-12-30T13:09:07.857Z,92.10
2018-12-30T13:11:39.150Z,92.00
2018-12-30T13:14:10.648Z,91.70
2018-12-30T13:16:42.125Z,91.70
2018-12-30T13:19:19.468Z,91.50
2018-12-30T13:21:50.712Z,91.40
2018-12-30T13:24:22.072Z,91.20
2018-12-30T13:26:53.308Z,91.10
2018-12-30T13:29:24.809Z,91.00
2018-12-30T13:31:56.346Z,90.70
2018-12-30T13:34:27.622Z,90.60
2018-12-30T13:36:58.946Z,90.60
2018-12-30T13:39:30.265Z,90.70
2018-12-30T13:42:01.564Z,90.50
2018-12-30T13:44:32.815Z,90.60
2018-12-30T13:47:09.287Z,90.60
2018-12-30T13:49:41.729Z,90.60
2018-12-30T13:52:14.546Z,90.50
2018-12-30T13:54:48.706Z,90.50
2018-12-30T13:57:21.675Z,90.50
2018-12-30T13:59:53.113Z,90.80
2018-12-30T14:02:24.445Z,90.40
2018-12-30T14:04:57.465Z,90.40
2018-12-30T14:07:28.822Z,90.40
2018-12-30T14:10:03.380Z,90.40
2018-12-30T14:12:35.419Z,90.30
2018-12-30T14:15:07.686Z,90.30
2018-12-30T14:17:39.115Z,90.40
2018-12-30T14:20:10.421Z,90.30
2018-12-30T14:22:42.400Z,90.30
2018-12-30T14:25:13.687Z,90.30
2018-12-30T14:27:44.965Z,90.40
2018-12-30T14:30:16.265Z,90.40
2018-12-30T14:32:47.614Z,90.30
2018-12-30T14:35:19.034Z,90.30
2018-12-30T14:37:50.631Z,90.30
2018-12-30T14:40:22.027Z,90.30
2018-12-30T14:42:53.302Z,90.30
2018-12-30T14:45:24.679Z,90.30
2018-12-30T14:47:55.944Z,90.30
2018-12-30T14:50:28.121Z,90.20
2018-12-30T14:52:59.688Z,90.20
2018-12-30T14:55:31.590Z,90.30
2018-12-30T14:58:03.325Z,90.70
2018-12-30T15:00:35.014Z,90.20
2018-12-30T15:03:06.345Z,90.20
2018-12-30T15:05:38.708Z,90.10
2018-12-30T15:08:10.088Z,90.00
2018-12-30T15:10:41.568Z,90.00
2018-12-30T15:13:13.417Z,90.00
2018-12-30T15:15:44.696Z,90.00
2018-12-30T15:18:15.978Z,90.00
2018-12-30T15:20:47.419Z,89.90
2018-12-30T15:23:19.102Z,89.90
2018-12-30T15:25:50.541Z,89.90
2018-12-30T15:28:21.807Z,89.70
2018-12-30T15:30:54.853Z,89.40
2018-12-30T15:33:26.180Z,89.30
2018-12-30T15:35:57.719Z,89.20
2018-12-30T15:38:29.057Z,89.20
2018-12-30T15:41:00.371Z,89.00
2018-12-30T15:43:31.822Z,88.90
2018-12-30T15:46:03.447Z,88.90
2018-12-30T15:48:34.871Z,88.90
2018-12-30T15:51:07.091Z,89.00
2018-12-30T15:53:38.365Z,88.80
2018-12-30T15:56:09.583Z,88.70
2018-12-30T15:58:40.831Z,88.80
2018-12-30T16:01:12.421Z,88.90
2018-12-30T16:03:43.669Z,88.90
2018-12-30T16:06:14.974Z,88.90
2018-12-30T16:08:46.153Z,88.80
2018-12-30T16:11:17.471Z,88.80
2018-12-30T16:13:49.056Z,88.70
2018-12-30T16:16:20.283Z,88.60
2018-12-30T16:18:51.563Z,88.50
2018-12-30T16:21:22.900Z,88.50
2018-12-30T16:23:54.537Z,88.60
2018-12-30T16:26:25.746Z,88.30
2018-12-30T16:28:57.160Z,88.20
2018-12-30T16:31:28.447Z,88.30
2018-12-30T16:33:59.729Z,88.30
2018-12-30T16:36:31.140Z,88.20
2018-12-30T16:39:02.445Z,88.00
2018-12-30T16:41:34.661Z,87.80
2018-12-30T16:44:05.954Z,87.50
2018-12-30T16:46:37.388Z,87.10
2018-12-30T16:49:08.572Z,87.10
2018-12-30T16:51:40.524Z,86.70
2018-12-30T16:54:11.771Z,86.50
2018-12-30T16:56:43.062Z,86.30
2018-12-30T16:59:14.304Z,86.10
2018-12-30T17:01:45.856Z,85.80
2018-12-30T17:04:17.296Z,85.80
2018-12-30T17:06:48.655Z,85.80
2018-12-30T17:09:20.409Z,85.70
2018-12-30T17:11:51.707Z,85.80
2018-12-30T17:14:22.978Z,85.80
2018-12-30T17:16:54.514Z,85.60
2018-12-30T17:19:25.757Z,85.50
2018-12-30T17:21:57.115Z,85.30
2018-12-30T17:24:29.981Z,85.30
2018-12-30T17:27:01.354Z,85.40
2018-12-30T17:29:32.994Z,85.40
2018-12-30T17:32:04.296Z,85.40
2018-12-30T17:34:35.634Z,85.40
2018-12-30T17:37:07.022Z,85.40
2018-12-30T17:39:38.330Z,85.30
2018-12-30T17:42:15.724Z,85.40
2018-12-30T17:44:47.085Z,85.50
2018-12-30T17:47:18.623Z,85.30
2018-12-30T17:49:49.985Z,85.50
2018-12-30T17:52:21.311Z,85.60
2018-12-30T17:54:52.590Z,85.50
2018-12-30T17:57:23.893Z,85.80
2018-12-30T17:59:55.154Z,85.80
2018-12-30T18:02:26.491Z,85.60
2018-12-30T18:04:57.806Z,86.40
2018-12-30T18:07:29.017Z,85.10
2018-12-30T18:10:00.430Z,85.00
2018-12-30T18:12:31.787Z,85.10
2018-12-30T18:15:03.101Z,85.20
2018-12-30T18:17:41.292Z,84.90
2018-12-30T18:20:08.012Z,84.90
2018-12-30T18:22:41.362Z,85.00
2018-12-30T18:25:12.652Z,85.00
2018-12-30T18:27:43.873Z,85.20
2018-12-30T18:30:15.125Z,85.10
2018-12-30T18:32:47.326Z,85.10
2018-12-30T18:38:43.586Z,85.20
2018-12-30T18:41:14.776Z,85.20
2018-12-30T18:43:46.170Z,85.30
2018-12-30T18:55:53.364Z,85.60
2018-12-30T19:01:26.482Z,85.70
2018-12-30T19:03:57.711Z,85.60
2018-12-30T19:06:30.242Z,85.70
2018-12-30T19:09:01.409Z,85.80
2018-12-30T19:11:33.791Z,85.80
2018-12-30T19:14:05.068Z,85.90
2018-12-30T19:16:36.692Z,86.10
2018-12-30T19:19:08.899Z,86.10
2018-12-30T19:21:40.696Z,86.10
2018-12-30T19:24:12.238Z,86.10
2018-12-30T19:26:43.675Z,86.20
2018-12-30T19:29:19.259Z,86.10
2018-12-30T19:31:52.382Z,86.30
2018-12-30T19:34:23.657Z,86.10
2018-12-30T19:36:55.271Z,86.10
2018-12-30T19:39:29.707Z,86.10
2018-12-30T19:42:02.466Z,86.20
2018-12-30T19:44:33.799Z,85.90
2018-12-30T19:47:05.087Z,85.90
2018-12-30T19:49:36.813Z,86.10
2018-12-30T19:52:08.089Z,86.40
2018-12-30T19:54:39.453Z,86.30
2018-12-30T19:57:10.938Z,86.40
2018-12-30T19:59:43.275Z,86.60
2018-12-30T20:02:14.667Z,86.60
2018-12-30T20:04:45.935Z,86.60
2018-12-30T20:07:17.221Z,86.60
2018-12-30T20:09:48.459Z,86.60
2018-12-30T20:12:19.829Z,86.60
2018-12-30T20:14:51.273Z,86.60
2018-12-30T20:17:23.039Z,86.40
2018-12-30T20:19:54.240Z,86.10
2018-12-30T20:22:25.524Z,86.20
2018-12-30T20:24:56.974Z,86.10
2018-12-30T20:27:28.306Z,86.10
2018-12-30T20:29:59.558Z,86.10
2018-12-30T20:32:30.982Z,86.10
2018-12-30T20:35:02.455Z,86.20
2018-12-30T20:37:33.736Z,86.10
2018-12-30T20:40:05.086Z,86.20
2018-12-30T20:42:36.724Z,86.10
2018-12-30T20:45:08.175Z,86.10
2018-12-30T20:47:39.815Z,86.20
2018-12-30T20:50:11.116Z,86.10
2018-12-30T20:52:42.429Z,86.00
2018-12-30T20:55:13.795Z,85.90
2018-12-30T20:57:45.343Z,85.90
2018-12-30T21:00:16.700Z,85.90
2018-12-30T21:02:48.144Z,85.90
2018-12-30T21:05:21.725Z,85.80
2018-12-30T21:07:53.122Z,85.90
2018-12-30T21:10:24.377Z,85.90
2018-12-30T21:12:55.582Z,86.00
2018-12-30T21:15:26.836Z,85.90
2018-12-30T21:17:58.240Z,85.90
2018-12-30T21:20:32.447Z,85.80
2018-12-30T21:23:03.756Z,85.50
2018-12-30T21:25:35.370Z,86.20
2018-12-30T21:28:06.757Z,85.40
2018-12-30T21:30:37.936Z,85.20
2018-12-30T21:33:09.839Z,85.20
2018-12-30T21:35:44.664Z,85.00
2018-12-30T21:38:15.929Z,84.90
2018-12-30T21:40:47.490Z,84.90
2018-12-30T21:43:19.107Z,84.90
2018-12-30T21:45:50.669Z,84.90
2018-12-30T21:48:21.930Z,84.70
2018-12-30T21:50:53.135Z,84.80
2018-12-30T21:53:24.405Z,84.70
2018-12-30T21:55:55.572Z,84.40
2018-12-30T21:58:27.030Z,84.50
2018-12-30T22:00:58.334Z,84.50
2018-12-30T22:03:29.898Z,84.70
2018-12-30T22:06:01.157Z,84.50
2018-12-30T22:08:32.529Z,84.50
2018-12-30T22:11:03.777Z,84.60
2018-12-30T22:13:35.056Z,84.60
2018-12-30T22:16:06.385Z,84.50
2018-12-30T22:18:37.802Z,84.50
2018-12-30T22:21:09.331Z,84.70
2018-12-30T22:23:40.595Z,84.50
2018-12-30T22:26:13.668Z,84.50
2018-12-30T22:28:44.961Z,84.40
2018-12-30T22:31:16.251Z,84.50
2018-12-30T22:33:47.569Z,84.60
2018-12-30T22:36:18.828Z,84.50
2018-12-30T22:38:52.877Z,84.50
2018-12-30T22:41:23.141Z,84.50
2018-12-30T22:43:54.433Z,84.50
2018-12-30T22:46:25.675Z,84.50
2018-12-30T22:48:57.002Z,84.70
2018-12-30T22:51:28.425Z,84.70
2018-12-30T22:53:59.616Z,84.70
2018-12-30T22:56:31.106Z,84.70
2018-12-30T22:59:02.788Z,84.80
2018-12-30T23:01:38.460Z,85.00
2018-12-30T23:04:09.898Z,85.00
2018-12-30T23:06:41.822Z,85.10
2018-12-30T23:09:13.098Z,85.10
2018-12-30T23:11:44.285Z,85.10
2018-12-30T23:14:15.685Z,85.10
2018-12-30T23:16:47.166Z,85.10
2018-12-30T23:19:18.693Z,85.20
2018-12-30T23:21:50.318Z,85.40
2018-12-30T23:24:21.900Z,85.40
2018-12-30T23:26:53.142Z,85.40
2018-12-30T23:29:24.477Z,85.60
2018-12-30T23:31:55.636Z,85.80
2018-12-30T23:34:26.966Z,85.90
2018-12-30T23:36:58.530Z,86.20
2018-12-30T23:39:30.053Z,86.30
2018-12-30T23:42:01.391Z,86.50
2018-12-30T23:44:32.772Z,86.60
2018-12-30T23:47:05.284Z,86.80
2018-12-30T23:49:36.668Z,86.80
2018-12-30T23:52:08.333Z,87.00
2018-12-30T23:54:39.701Z,87.10
2018-12-30T23:57:11.093Z,87.10
2018-12-30T23:59:42.614Z,87.00
